Terminal Aerodrome Forecast
Issued by NWS

Home | Current Version | Previous Version | Text Only | Print | Product List | Glossary On
Versions: 1 2 3 4 5 6 7 8 9 10 11 12 13 14 15 16 17
000
FTUS45 KRIW 271200 AAA
TAFBPI
TAF AMD
KBPI 271243Z 2713/2812 36006KT P6SM VCFG SCT003 SCT028
     FM271600 VRB05KT P6SM VCSH SCT050 BKN080
     FM272000 VRB10G17KT P6SM VCTS SCT040 OVC060CB
     FM280300 34007KT P6SM VCSH SCT035 BKN060=

USA.gov is the U.S. government's official web portal to all federal, state and local government web resources and services.